sensor_id;sensor_type;location;lat;lon;timestamp;P1;durP1;ratioP1;P2;durP2;ratioP2
13933;SDS011;7039;52.168;9.866;2023-06-19T00:01:25;7.80;;;6.00;;
13933;SDS011;7039;52.168;9.866;2023-06-19T00:03:52;9.17;;;5.87;;
13933;SDS011;7039;52.168;9.866;2023-06-19T00:06:18;6.20;;;5.60;;
13933;SDS011;7039;52.168;9.866;2023-06-19T00:08:45;7.70;;;6.90;;
13933;SDS011;7039;52.168;9.866;2023-06-19T00:11:11;6.70;;;6.10;;
13933;SDS011;7039;52.168;9.866;2023-06-19T00:13:39;6.47;;;5.83;;
13933;SDS011;7039;52.168;9.866;2023-06-19T00:16:05;6.80;;;6.10;;
13933;SDS011;7039;52.168;9.866;2023-06-19T00:18:32;8.30;;;6.40;;
13933;SDS011;7039;52.168;9.866;2023-06-19T00:21:04;7.53;;;6.40;;
13933;SDS011;7039;52.168;9.866;2023-06-19T00:23:31;6.57;;;5.90;;
13933;SDS011;7039;52.168;9.866;2023-06-19T00:25:57;9.23;;;6.30;;
13933;SDS011;7039;52.168;9.866;2023-06-19T00:28:26;6.67;;;6.07;;
13933;SDS011;7039;52.168;9.866;2023-06-19T00:30:53;6.50;;;5.90;;
13933;SDS011;7039;52.168;9.866;2023-06-19T00:33:20;6.30;;;5.70;;
13933;SDS011;7039;52.168;9.866;2023-06-19T00:35:47;6.40;;;5.83;;
13933;SDS011;7039;52.168;9.866;2023-06-19T00:38:13;6.23;;;5.63;;
13933;SDS011;7039;52.168;9.866;2023-06-19T00:40:40;7.43;;;6.33;;
13933;SDS011;7039;52.168;9.866;2023-06-19T00:43:06;6.90;;;6.30;;
13933;SDS011;7039;52.168;9.866;2023-06-19T00:45:33;7.83;;;6.10;;
13933;SDS011;7039;52.168;9.866;2023-06-19T00:48:00;7.07;;;6.37;;
13933;SDS011;7039;52.168;9.866;2023-06-19T00:50:27;7.50;;;6.50;;
13933;SDS011;7039;52.168;9.866;2023-06-19T00:52:54;6.90;;;6.20;;
13933;SDS011;7039;52.168;9.866;2023-06-19T00:55:22;7.23;;;6.53;;
13933;SDS011;7039;52.168;9.866;2023-06-19T00:57:48;7.10;;;6.40;;
13933;SDS011;7039;52.168;9.866;2023-06-19T01:00:15;6.50;;;5.90;;
13933;SDS011;7039;52.168;9.866;2023-06-19T01:02:43;7.37;;;6.07;;
13933;SDS011;7039;52.168;9.866;2023-06-19T01:05:10;7.40;;;6.70;;
13933;SDS011;7039;52.168;9.866;2023-06-19T01:07:38;7.20;;;6.50;;
13933;SDS011;7039;52.168;9.866;2023-06-19T01:10:12;11.57;;;6.87;;
13933;SDS011;7039;52.168;9.866;2023-06-19T01:12:44;6.97;;;6.27;;
13933;SDS011;7039;52.168;9.866;2023-06-19T01:15:15;8.30;;;6.30;;
13933;SDS011;7039;52.168;9.866;2023-06-19T01:17:43;7.20;;;6.23;;
13933;SDS011;7039;52.168;9.866;2023-06-19T01:20:13;6.93;;;6.23;;
13933;SDS011;7039;52.168;9.866;2023-06-19T01:22:41;7.47;;;6.67;;
13933;SDS011;7039;52.168;9.866;2023-06-19T01:25:09;9.07;;;7.10;;
13933;SDS011;7039;52.168;9.866;2023-06-19T01:27:35;7.97;;;6.93;;
13933;SDS011;7039;52.168;9.866;2023-06-19T01:30:03;10.57;;;6.33;;
13933;SDS011;7039;52.168;9.866;2023-06-19T01:32:31;6.70;;;6.10;;
13933;SDS011;7039;52.168;9.866;2023-06-19T01:35:04;7.30;;;6.40;;
13933;SDS011;7039;52.168;9.866;2023-06-19T01:37:33;7.57;;;6.50;;
13933;SDS011;7039;52.168;9.866;2023-06-19T01:40:02;7.70;;;6.90;;
13933;SDS011;7039;52.168;9.866;2023-06-19T01:42:31;8.50;;;6.50;;
13933;SDS011;7039;52.168;9.866;2023-06-19T01:45:00;7.90;;;6.93;;
13933;SDS011;7039;52.168;9.866;2023-06-19T01:47:28;9.27;;;6.60;;
13933;SDS011;7039;52.168;9.866;2023-06-19T01:49:54;6.97;;;6.27;;
13933;SDS011;7039;52.168;9.866;2023-06-19T01:52:21;8.03;;;6.60;;
13933;SDS011;7039;52.168;9.866;2023-06-19T01:54:47;8.93;;;7.10;;
13933;SDS011;7039;52.168;9.866;2023-06-19T01:57:15;7.50;;;6.80;;
13933;SDS011;7039;52.168;9.866;2023-06-19T01:59:42;7.47;;;6.67;;
13933;SDS011;7039;52.168;9.866;2023-06-19T02:02:09;7.60;;;6.77;;
13933;SDS011;7039;52.168;9.866;2023-06-19T02:04:36;7.57;;;6.40;;
13933;SDS011;7039;52.168;9.866;2023-06-19T02:07:02;7.47;;;6.73;;
13933;SDS011;7039;52.168;9.866;2023-06-19T02:09:29;7.13;;;6.33;;
13933;SDS011;7039;52.168;9.866;2023-06-19T02:11:55;7.57;;;6.80;;
13933;SDS011;7039;52.168;9.866;2023-06-19T02:14:23;8.00;;;6.87;;
13933;SDS011;7039;52.168;9.866;2023-06-19T02:16:49;7.33;;;6.63;;
13933;SDS011;7039;52.168;9.866;2023-06-19T02:19:16;7.40;;;6.13;;
13933;SDS011;7039;52.168;9.866;2023-06-19T02:21:42;8.73;;;6.70;;
13933;SDS011;7039;52.168;9.866;2023-06-19T02:24:09;7.93;;;7.13;;
13933;SDS011;7039;52.168;9.866;2023-06-19T02:26:35;8.67;;;6.73;;
13933;SDS011;7039;52.168;9.866;2023-06-19T02:29:01;9.77;;;7.00;;
13933;SDS011;7039;52.168;9.866;2023-06-19T02:31:29;7.10;;;6.40;;
13933;SDS011;7039;52.168;9.866;2023-06-19T02:33:56;7.50;;;6.80;;
13933;SDS011;7039;52.168;9.866;2023-06-19T02:36:22;6.83;;;6.13;;
13933;SDS011;7039;52.168;9.866;2023-06-19T02:38:49;9.67;;;6.50;;
13933;SDS011;7039;52.168;9.866;2023-06-19T02:41:16;7.43;;;6.70;;
13933;SDS011;7039;52.168;9.866;2023-06-19T02:43:43;7.00;;;6.27;;
13933;SDS011;7039;52.168;9.866;2023-06-19T02:46:10;8.57;;;7.10;;
13933;SDS011;7039;52.168;9.866;2023-06-19T02:48:38;8.23;;;5.83;;
13933;SDS011;7039;52.168;9.866;2023-06-19T02:51:05;6.77;;;6.07;;
13933;SDS011;7039;52.168;9.866;2023-06-19T02:53:31;6.80;;;6.00;;
13933;SDS011;7039;52.168;9.866;2023-06-19T02:55:58;6.70;;;6.00;;
13933;SDS011;7039;52.168;9.866;2023-06-19T02:58:24;6.43;;;5.83;;
13933;SDS011;7039;52.168;9.866;2023-06-19T03:00:51;8.50;;;6.17;;
13933;SDS011;7039;52.168;9.866;2023-06-19T03:03:18;7.10;;;6.40;;
13933;SDS011;7039;52.168;9.866;2023-06-19T03:05:46;9.30;;;6.50;;
13933;SDS011;7039;52.168;9.866;2023-06-19T03:08:12;8.47;;;6.53;;
13933;SDS011;7039;52.168;9.866;2023-06-19T03:10:39;7.07;;;6.37;;
13933;SDS011;7039;52.168;9.866;2023-06-19T03:13:05;7.37;;;6.30;;
13933;SDS011;7039;52.168;9.866;2023-06-19T03:15:32;7.33;;;6.60;;
13933;SDS011;7039;52.168;9.866;2023-06-19T03:17:58;7.77;;;5.63;;
13933;SDS011;7039;52.168;9.866;2023-06-19T03:20:28;8.77;;;6.40;;
13933;SDS011;7039;52.168;9.866;2023-06-19T03:22:56;7.30;;;6.50;;
13933;SDS011;7039;52.168;9.866;2023-06-19T03:25:22;8.97;;;6.83;;
13933;SDS011;7039;52.168;9.866;2023-06-19T03:27:48;7.70;;;5.80;;
13933;SDS011;7039;52.168;9.866;2023-06-19T03:30:15;6.93;;;6.20;;
13933;SDS011;7039;52.168;9.866;2023-06-19T03:32:43;10.43;;;6.03;;
13933;SDS011;7039;52.168;9.866;2023-06-19T03:35:10;8.07;;;6.30;;
13933;SDS011;7039;52.168;9.866;2023-06-19T03:37:36;9.27;;;6.60;;
13933;SDS011;7039;52.168;9.866;2023-06-19T03:40:05;7.30;;;6.43;;
13933;SDS011;7039;52.168;9.866;2023-06-19T03:42:33;6.73;;;6.03;;
13933;SDS011;7039;52.168;9.866;2023-06-19T03:45:00;6.60;;;6.00;;
13933;SDS011;7039;52.168;9.866;2023-06-19T03:47:26;8.13;;;6.57;;
13933;SDS011;7039;52.168;9.866;2023-06-19T03:49:53;7.63;;;6.00;;
13933;SDS011;7039;52.168;9.866;2023-06-19T03:52:19;8.20;;;6.43;;
13933;SDS011;7039;52.168;9.866;2023-06-19T03:54:46;7.47;;;6.37;;
13933;SDS011;7039;52.168;9.866;2023-06-19T03:57:14;7.40;;;6.70;;
13933;SDS011;7039;52.168;9.866;2023-06-19T03:59:40;8.83;;;6.73;;
13933;SDS011;7039;52.168;9.866;2023-06-19T04:02:07;9.87;;;6.53;;
13933;SDS011;7039;52.168;9.866;2023-06-19T04:04:33;9.20;;;7.07;;
13933;SDS011;7039;52.168;9.866;2023-06-19T04:07:00;8.77;;;6.10;;
13933;SDS011;7039;52.168;9.866;2023-06-19T04:09:26;7.43;;;6.63;;
13933;SDS011;7039;52.168;9.866;2023-06-19T04:11:52;8.97;;;6.73;;
13933;SDS011;7039;52.168;9.866;2023-06-19T04:14:20;7.23;;;6.03;;
13933;SDS011;7039;52.168;9.866;2023-06-19T04:16:48;7.43;;;6.63;;
13933;SDS011;7039;52.168;9.866;2023-06-19T04:19:14;8.87;;;6.60;;
13933;SDS011;7039;52.168;9.866;2023-06-19T04:21:41;7.47;;;6.50;;
13933;SDS011;7039;52.168;9.866;2023-06-19T04:24:07;9.03;;;6.80;;
13933;SDS011;7039;52.168;9.866;2023-06-19T04:26:34;8.27;;;6.20;;
13933;SDS011;7039;52.168;9.866;2023-06-19T04:29:00;7.63;;;6.83;;
13933;SDS011;7039;52.168;9.866;2023-06-19T04:31:28;7.30;;;6.60;;
13933;SDS011;7039;52.168;9.866;2023-06-19T04:33:55;9.30;;;6.90;;
13933;SDS011;7039;52.168;9.866;2023-06-19T04:36:22;9.83;;;7.80;;
13933;SDS011;7039;52.168;9.866;2023-06-19T04:38:48;11.83;;;7.50;;
13933;SDS011;7039;52.168;9.866;2023-06-19T04:41:16;7.97;;;7.17;;
13933;SDS011;7039;52.168;9.866;2023-06-19T04:43:42;10.03;;;7.27;;
13933;SDS011;7039;52.168;9.866;2023-06-19T04:46:09;8.17;;;6.13;;
13933;SDS011;7039;52.168;9.866;2023-06-19T04:48:37;8.53;;;6.67;;
13933;SDS011;7039;52.168;9.866;2023-06-19T04:51:05;8.70;;;7.20;;
13933;SDS011;7039;52.168;9.866;2023-06-19T04:53:31;7.77;;;6.53;;
13933;SDS011;7039;52.168;9.866;2023-06-19T04:55:58;13.60;;;7.50;;
13933;SDS011;7039;52.168;9.866;2023-06-19T04:58:24;9.00;;;6.70;;
13933;SDS011;7039;52.168;9.866;2023-06-19T05:00:51;12.23;;;7.00;;
13933;SDS011;7039;52.168;9.866;2023-06-19T05:03:17;9.10;;;6.30;;
13933;SDS011;7039;52.168;9.866;2023-06-19T05:05:45;8.73;;;6.70;;
13933;SDS011;7039;52.168;9.866;2023-06-19T05:08:12;9.47;;;6.83;;
13933;SDS011;7039;52.168;9.866;2023-06-19T05:10:39;9.60;;;7.53;;
13933;SDS011;7039;52.168;9.866;2023-06-19T05:13:05;7.70;;;6.93;;
13933;SDS011;7039;52.168;9.866;2023-06-19T05:15:32;10.67;;;7.30;;
13933;SDS011;7039;52.168;9.866;2023-06-19T05:17:58;7.43;;;6.60;;
13933;SDS011;7039;52.168;9.866;2023-06-19T05:20:25;11.27;;;7.50;;
13933;SDS011;7039;52.168;9.866;2023-06-19T05:22:53;9.17;;;7.67;;
13933;SDS011;7039;52.168;9.866;2023-06-19T05:25:19;9.40;;;7.20;;
13933;SDS011;7039;52.168;9.866;2023-06-19T05:27:46;7.60;;;6.90;;
13933;SDS011;7039;52.168;9.866;2023-06-19T05:30:12;9.13;;;7.53;;
13933;SDS011;7039;52.168;9.866;2023-06-19T05:32:38;11.80;;;6.80;;
13933;SDS011;7039;52.168;9.866;2023-06-19T05:35:05;7.80;;;6.47;;
13933;SDS011;7039;52.168;9.866;2023-06-19T05:37:32;7.67;;;6.93;;
13933;SDS011;7039;52.168;9.866;2023-06-19T05:40:00;8.15;;;7.18;;
13933;SDS011;7039;52.168;9.866;2023-06-19T05:42:28;7.93;;;7.03;;
13933;SDS011;7039;52.168;9.866;2023-06-19T05:44:55;8.27;;;6.97;;
13933;SDS011;7039;52.168;9.866;2023-06-19T05:47:21;8.70;;;7.50;;
13933;SDS011;7039;52.168;9.866;2023-06-19T05:49:50;12.10;;;7.45;;
13933;SDS011;7039;52.168;9.866;2023-06-19T05:52:17;10.17;;;7.20;;
13933;SDS011;7039;52.168;9.866;2023-06-19T05:54:43;13.93;;;8.13;;
13933;SDS011;7039;52.168;9.866;2023-06-19T05:57:11;8.07;;;7.30;;
13933;SDS011;7039;52.168;9.866;2023-06-19T05:59:38;9.67;;;7.13;;
13933;SDS011;7039;52.168;9.866;2023-06-19T06:02:05;8.87;;;7.20;;
13933;SDS011;7039;52.168;9.866;2023-06-19T06:04:32;7.40;;;6.60;;
13933;SDS011;7039;52.168;9.866;2023-06-19T06:06:59;8.65;;;6.65;;
13933;SDS011;7039;52.168;9.866;2023-06-19T06:09:26;8.75;;;6.93;;
13933;SDS011;7039;52.168;9.866;2023-06-19T06:11:53;8.82;;;7.35;;
13933;SDS011;7039;52.168;9.866;2023-06-19T06:14:20;9.25;;;7.75;;
13933;SDS011;7039;52.168;9.866;2023-06-19T06:16:47;9.00;;;7.45;;
13933;SDS011;7039;52.168;9.866;2023-06-19T06:19:13;8.38;;;6.85;;
13933;SDS011;7039;52.168;9.866;2023-06-19T06:21:40;10.27;;;7.43;;
13933;SDS011;7039;52.168;9.866;2023-06-19T06:24:06;9.23;;;6.75;;
13933;SDS011;7039;52.168;9.866;2023-06-19T06:26:33;11.43;;;7.15;;
13933;SDS011;7039;52.168;9.866;2023-06-19T06:29:00;12.38;;;7.53;;
13933;SDS011;7039;52.168;9.866;2023-06-19T06:31:28;8.32;;;7.32;;
13933;SDS011;7039;52.168;9.866;2023-06-19T06:33:54;8.10;;;7.30;;
13933;SDS011;7039;52.168;9.866;2023-06-19T06:36:21;8.27;;;7.47;;
13933;SDS011;7039;52.168;9.866;2023-06-19T06:38:47;9.73;;;7.38;;
13933;SDS011;7039;52.168;9.866;2023-06-19T06:41:14;7.43;;;6.65;;
13933;SDS011;7039;52.168;9.866;2023-06-19T06:43:40;8.60;;;7.55;;
13933;SDS011;7039;52.168;9.866;2023-06-19T06:46:08;9.23;;;7.60;;
13933;SDS011;7039;52.168;9.866;2023-06-19T06:48:36;9.75;;;7.72;;
13933;SDS011;7039;52.168;9.866;2023-06-19T06:51:03;8.85;;;7.95;;
13933;SDS011;7039;52.168;9.866;2023-06-19T06:53:29;9.40;;;7.40;;
13933;SDS011;7039;52.168;9.866;2023-06-19T06:55:57;9.30;;;7.00;;
13933;SDS011;7039;52.168;9.866;2023-06-19T06:58:24;8.80;;;7.38;;
13933;SDS011;7039;52.168;9.866;2023-06-19T07:00:51;8.25;;;7.45;;
13933;SDS011;7039;52.168;9.866;2023-06-19T07:03:18;8.20;;;7.38;;
13933;SDS011;7039;52.168;9.866;2023-06-19T07:05:46;8.65;;;7.80;;
13933;SDS011;7039;52.168;9.866;2023-06-19T07:08:13;7.55;;;6.82;;
13933;SDS011;7039;52.168;9.866;2023-06-19T07:10:39;8.77;;;7.88;;
13933;SDS011;7039;52.168;9.866;2023-06-19T07:13:06;9.40;;;8.07;;
13933;SDS011;7039;52.168;9.866;2023-06-19T07:15:33;9.73;;;7.35;;
13933;SDS011;7039;52.168;9.866;2023-06-19T07:17:59;16.10;;;7.50;;
13933;SDS011;7039;52.168;9.866;2023-06-19T07:20:26;9.02;;;7.18;;
13933;SDS011;7039;52.168;9.866;2023-06-19T07:22:53;8.57;;;7.68;;
13933;SDS011;7039;52.168;9.866;2023-06-19T07:25:20;18.98;;;8.77;;
13933;SDS011;7039;52.168;9.866;2023-06-19T07:27:49;9.43;;;8.13;;
13933;SDS011;7039;52.168;9.866;2023-06-19T07:30:16;8.70;;;7.75;;
13933;SDS011;7039;52.168;9.866;2023-06-19T07:32:43;11.82;;;8.75;;
13933;SDS011;7039;52.168;9.866;2023-06-19T07:35:09;17.10;;;8.85;;
13933;SDS011;7039;52.168;9.866;2023-06-19T07:37:37;8.52;;;7.68;;
13933;SDS011;7039;52.168;9.866;2023-06-19T07:40:05;11.57;;;8.02;;
13933;SDS011;7039;52.168;9.866;2023-06-19T07:42:32;9.13;;;8.23;;
13933;SDS011;7039;52.168;9.866;2023-06-19T07:44:59;12.13;;;8.38;;
13933;SDS011;7039;52.168;9.866;2023-06-19T07:47:26;11.25;;;8.88;;
13933;SDS011;7039;52.168;9.866;2023-06-19T07:49:53;9.63;;;8.10;;
13933;SDS011;7039;52.168;9.866;2023-06-19T07:52:19;8.30;;;7.47;;
13933;SDS011;7039;52.168;9.866;2023-06-19T07:54:52;10.38;;;8.18;;
13933;SDS011;7039;52.168;9.866;2023-06-19T07:57:22;9.15;;;8.25;;
13933;SDS011;7039;52.168;9.866;2023-06-19T07:59:51;8.90;;;8.00;;
13933;SDS011;7039;52.168;9.866;2023-06-19T08:02:20;8.43;;;7.47;;
13933;SDS011;7039;52.168;9.866;2023-06-19T08:04:47;7.88;;;6.93;;
13933;SDS011;7039;52.168;9.866;2023-06-19T08:07:13;8.55;;;7.70;;
13933;SDS011;7039;52.168;9.866;2023-06-19T08:09:40;10.70;;;7.70;;
13933;SDS011;7039;52.168;9.866;2023-06-19T08:12:06;9.10;;;7.88;;
13933;SDS011;7039;52.168;9.866;2023-06-19T08:14:35;7.68;;;6.93;;
13933;SDS011;7039;52.168;9.866;2023-06-19T08:17:03;8.60;;;7.70;;
13933;SDS011;7039;52.168;9.866;2023-06-19T08:19:30;9.32;;;6.63;;
13933;SDS011;7039;52.168;9.866;2023-06-19T08:21:56;9.00;;;7.78;;
13933;SDS011;7039;52.168;9.866;2023-06-19T08:24:23;8.00;;;7.05;;
13933;SDS011;7039;52.168;9.866;2023-06-19T08:26:49;9.88;;;7.28;;
13933;SDS011;7039;52.168;9.866;2023-06-19T08:29:17;11.70;;;7.90;;
13933;SDS011;7039;52.168;9.866;2023-06-19T08:31:45;8.60;;;7.75;;
13933;SDS011;7039;52.168;9.866;2023-06-19T08:34:11;9.45;;;7.85;;
13933;SDS011;7039;52.168;9.866;2023-06-19T08:36:38;7.50;;;6.63;;
13933;SDS011;7039;52.168;9.866;2023-06-19T08:39:04;8.50;;;7.70;;
13933;SDS011;7039;52.168;9.866;2023-06-19T08:41:33;9.65;;;7.80;;
13933;SDS011;7039;52.168;9.866;2023-06-19T08:44:00;12.05;;;7.72;;
13933;SDS011;7039;52.168;9.866;2023-06-19T08:46:28;9.90;;;7.30;;
13933;SDS011;7039;52.168;9.866;2023-06-19T08:48:56;8.55;;;7.68;;
13933;SDS011;7039;52.168;9.866;2023-06-19T08:51:23;8.75;;;7.85;;
13933;SDS011;7039;52.168;9.866;2023-06-19T08:53:53;9.32;;;8.43;;
13933;SDS011;7039;52.168;9.866;2023-06-19T08:56:21;10.13;;;7.53;;
13933;SDS011;7039;52.168;9.866;2023-06-19T08:58:47;8.35;;;7.55;;
13933;SDS011;7039;52.168;9.866;2023-06-19T09:01:16;7.90;;;7.10;;
13933;SDS011;7039;52.168;9.866;2023-06-19T09:03:44;8.98;;;7.20;;
13933;SDS011;7039;52.168;9.866;2023-06-19T09:06:13;8.73;;;7.82;;
13933;SDS011;7039;52.168;9.866;2023-06-19T09:08:40;9.77;;;7.80;;
13933;SDS011;7039;52.168;9.866;2023-06-19T09:11:07;9.63;;;7.88;;
13933;SDS011;7039;52.168;9.866;2023-06-19T09:13:33;9.20;;;7.00;;
13933;SDS011;7039;52.168;9.866;2023-06-19T09:16:01;8.00;;;7.20;;
13933;SDS011;7039;52.168;9.866;2023-06-19T09:18:29;7.72;;;7.03;;
13933;SDS011;7039;52.168;9.866;2023-06-19T09:20:56;9.48;;;6.68;;
13933;SDS011;7039;52.168;9.866;2023-06-19T09:23:24;9.07;;;7.38;;
13933;SDS011;7039;52.168;9.866;2023-06-19T09:25:51;7.80;;;7.00;;
13933;SDS011;7039;52.168;9.866;2023-06-19T09:28:20;7.05;;;6.35;;
13933;SDS011;7039;52.168;9.866;2023-06-19T09:30:57;6.72;;;6.13;;
13933;SDS011;7039;52.168;9.866;2023-06-19T09:33:25;7.28;;;6.60;;
13933;SDS011;7039;52.168;9.866;2023-06-19T09:35:53;9.32;;;7.28;;
13933;SDS011;7039;52.168;9.866;2023-06-19T09:38:21;21.77;;;7.72;;
13933;SDS011;7039;52.168;9.866;2023-06-19T09:40:52;10.73;;;6.53;;
13933;SDS011;7039;52.168;9.866;2023-06-19T09:43:21;10.00;;;7.00;;
13933;SDS011;7039;52.168;9.866;2023-06-19T09:45:49;7.22;;;6.63;;
13933;SDS011;7039;52.168;9.866;2023-06-19T09:48:22;13.60;;;7.47;;
13933;SDS011;7039;52.168;9.866;2023-06-19T09:51:01;7.45;;;6.43;;
13933;SDS011;7039;52.168;9.866;2023-06-19T09:53:44;7.07;;;6.38;;
13933;SDS011;7039;52.168;9.866;2023-06-19T09:56:13;7.40;;;6.53;;
13933;SDS011;7039;52.168;9.866;2023-06-19T09:58:40;7.65;;;6.70;;
13933;SDS011;7039;52.168;9.866;2023-06-19T10:01:08;7.45;;;6.75;;
13933;SDS011;7039;52.168;9.866;2023-06-19T10:03:36;7.32;;;6.63;;
13933;SDS011;7039;52.168;9.866;2023-06-19T10:06:03;7.85;;;7.03;;
13933;SDS011;7039;52.168;9.866;2023-06-19T10:08:31;11.32;;;7.20;;
13933;SDS011;7039;52.168;9.866;2023-06-19T10:11:05;7.25;;;6.55;;
13933;SDS011;7039;52.168;9.866;2023-06-19T10:13:37;8.05;;;6.78;;
13933;SDS011;7039;52.168;9.866;2023-06-19T10:16:05;7.18;;;6.43;;
13933;SDS011;7039;52.168;9.866;2023-06-19T10:18:32;8.30;;;6.82;;
13933;SDS011;7039;52.168;9.866;2023-06-19T10:21:15;15.00;;;6.90;;
13933;SDS011;7039;52.168;9.866;2023-06-19T10:23:42;8.73;;;7.82;;
13933;SDS011;7039;52.168;9.866;2023-06-19T10:26:15;8.30;;;7.47;;
13933;SDS011;7039;52.168;9.866;2023-06-19T10:28:45;8.73;;;6.70;;
13933;SDS011;7039;52.168;9.866;2023-06-19T10:31:13;8.05;;;7.25;;
13933;SDS011;7039;52.168;9.866;2023-06-19T10:33:39;10.45;;;7.07;;
13933;SDS011;7039;52.168;9.866;2023-06-19T10:36:13;8.43;;;7.50;;
13933;SDS011;7039;52.168;9.866;2023-06-19T10:38:40;8.20;;;7.40;;
13933;SDS011;7039;52.168;9.866;2023-06-19T10:41:14;8.90;;;8.00;;
13933;SDS011;7039;52.168;9.866;2023-06-19T10:43:52;9.93;;;7.00;;
13933;SDS011;7039;52.168;9.866;2023-06-19T10:46:20;8.75;;;7.70;;
13933;SDS011;7039;52.168;9.866;2023-06-19T10:48:48;9.02;;;8.05;;
13933;SDS011;7039;52.168;9.866;2023-06-19T10:51:17;8.65;;;7.85;;
13933;SDS011;7039;52.168;9.866;2023-06-19T10:53:44;13.02;;;7.75;;
13933;SDS011;7039;52.168;9.866;2023-06-19T10:56:11;8.02;;;7.30;;
13933;SDS011;7039;52.168;9.866;2023-06-19T10:58:37;9.30;;;7.40;;
13933;SDS011;7039;52.168;9.866;2023-06-19T11:01:05;8.18;;;6.40;;
13933;SDS011;7039;52.168;9.866;2023-06-19T11:03:31;6.75;;;6.15;;
13933;SDS011;7039;52.168;9.866;2023-06-19T11:05:59;7.45;;;6.65;;
13933;SDS011;7039;52.168;9.866;2023-06-19T11:08:26;7.45;;;6.80;;
13933;SDS011;7039;52.168;9.866;2023-06-19T11:10:52;7.22;;;6.57;;
13933;SDS011;7039;52.168;9.866;2023-06-19T11:13:19;7.18;;;6.30;;
13933;SDS011;7039;52.168;9.866;2023-06-19T11:15:47;7.00;;;6.30;;
13933;SDS011;7039;52.168;9.866;2023-06-19T11:18:16;8.32;;;5.80;;
13933;SDS011;7039;52.168;9.866;2023-06-19T11:20:44;7.80;;;5.72;;
13933;SDS011;7039;52.168;9.866;2023-06-19T11:23:11;8.43;;;5.53;;
13933;SDS011;7039;52.168;9.866;2023-06-19T11:25:39;8.02;;;4.90;;
13933;SDS011;7039;52.168;9.866;2023-06-19T11:28:10;6.60;;;4.95;;
13933;SDS011;7039;52.168;9.866;2023-06-19T11:30:38;5.72;;;5.22;;
13933;SDS011;7039;52.168;9.866;2023-06-19T11:33:15;5.43;;;4.93;;
13933;SDS011;7039;52.168;9.866;2023-06-19T11:35:47;4.90;;;4.05;;
13933;SDS011;7039;52.168;9.866;2023-06-19T11:38:16;7.13;;;4.45;;
13933;SDS011;7039;52.168;9.866;2023-06-19T11:40:43;6.47;;;5.40;;
13933;SDS011;7039;52.168;9.866;2023-06-19T11:43:10;5.65;;;5.13;;
13933;SDS011;7039;52.168;9.866;2023-06-19T11:45:47;6.10;;;5.20;;
13933;SDS011;7039;52.168;9.866;2023-06-19T11:48:20;6.15;;;5.65;;
13933;SDS011;7039;52.168;9.866;2023-06-19T11:50:47;7.60;;;5.68;;
13933;SDS011;7039;52.168;9.866;2023-06-19T11:53:14;7.10;;;6.07;;
13933;SDS011;7039;52.168;9.866;2023-06-19T11:55:40;10.88;;;5.82;;
13933;SDS011;7039;52.168;9.866;2023-06-19T11:58:08;7.88;;;5.80;;
13933;SDS011;7039;52.168;9.866;2023-06-19T12:00:35;6.18;;;5.65;;
13933;SDS011;7039;52.168;9.866;2023-06-19T12:03:02;5.88;;;5.38;;
13933;SDS011;7039;52.168;9.866;2023-06-19T12:05:30;8.52;;;6.63;;
13933;SDS011;7039;52.168;9.866;2023-06-19T12:07:57;7.88;;;7.07;;
13933;SDS011;7039;52.168;9.866;2023-06-19T12:10:23;6.82;;;6.22;;
13933;SDS011;7039;52.168;9.866;2023-06-19T12:12:49;7.15;;;5.85;;
13933;SDS011;7039;52.168;9.866;2023-06-19T12:15:16;6.38;;;5.78;;
13933;SDS011;7039;52.168;9.866;2023-06-19T12:17:43;7.28;;;6.60;;
13933;SDS011;7039;52.168;9.866;2023-06-19T12:20:10;5.70;;;5.10;;
13933;SDS011;7039;52.168;9.866;2023-06-19T12:22:40;5.78;;;5.28;;
13933;SDS011;7039;52.168;9.866;2023-06-19T12:25:07;8.07;;;4.70;;
13933;SDS011;7039;52.168;9.866;2023-06-19T12:27:35;6.53;;;4.80;;
13933;SDS011;7039;52.168;9.866;2023-06-19T12:30:01;5.30;;;4.80;;
13933;SDS011;7039;52.168;9.866;2023-06-19T12:32:28;6.53;;;4.97;;
13933;SDS011;7039;52.168;9.866;2023-06-19T12:34:54;5.07;;;4.57;;
13933;SDS011;7039;52.168;9.866;2023-06-19T12:37:21;5.05;;;4.65;;
13933;SDS011;7039;52.168;9.866;2023-06-19T12:39:49;4.63;;;4.13;;
13933;SDS011;7039;52.168;9.866;2023-06-19T12:42:16;4.05;;;3.70;;
13933;SDS011;7039;52.168;9.866;2023-06-19T12:44:43;4.57;;;4.18;;
13933;SDS011;7039;52.168;9.866;2023-06-19T12:47:10;5.50;;;4.15;;
13933;SDS011;7039;52.168;9.866;2023-06-19T12:49:37;6.72;;;3.70;;
13933;SDS011;7039;52.168;9.866;2023-06-19T12:52:03;5.07;;;4.18;;
13933;SDS011;7039;52.168;9.866;2023-06-19T12:54:30;5.25;;;4.15;;
13933;SDS011;7039;52.168;9.866;2023-06-19T12:56:59;4.28;;;3.85;;
13933;SDS011;7039;52.168;9.866;2023-06-19T12:59:25;4.43;;;4.03;;
13933;SDS011;7039;52.168;9.866;2023-06-19T13:01:52;4.72;;;3.90;;
13933;SDS011;7039;52.168;9.866;2023-06-19T13:04:18;3.67;;;3.38;;
13933;SDS011;7039;52.168;9.866;2023-06-19T13:06:45;5.35;;;3.75;;
13933;SDS011;7039;52.168;9.866;2023-06-19T13:09:11;6.45;;;4.18;;
13933;SDS011;7039;52.168;9.866;2023-06-19T13:11:38;4.05;;;3.65;;
13933;SDS011;7039;52.168;9.866;2023-06-19T13:14:06;3.67;;;3.38;;
13933;SDS011;7039;52.168;9.866;2023-06-19T13:16:32;4.72;;;3.83;;
13933;SDS011;7039;52.168;9.866;2023-06-19T13:18:59;5.63;;;3.42;;
13933;SDS011;7039;52.168;9.866;2023-06-19T13:21:25;3.70;;;3.40;;
13933;SDS011;7039;52.168;9.866;2023-06-19T13:23:52;4.32;;;3.42;;
13933;SDS011;7039;52.168;9.866;2023-06-19T13:26:18;7.13;;;3.42;;
13933;SDS011;7039;52.168;9.866;2023-06-19T13:28:45;4.30;;;3.88;;
13933;SDS011;7039;52.168;9.866;2023-06-19T13:31:12;3.92;;;3.50;;
13933;SDS011;7039;52.168;9.866;2023-06-19T13:33:39;4.10;;;3.53;;
13933;SDS011;7039;52.168;9.866;2023-06-19T13:36:05;7.05;;;3.55;;
13933;SDS011;7039;52.168;9.866;2023-06-19T13:38:32;6.65;;;3.65;;
13933;SDS011;7039;52.168;9.866;2023-06-19T13:40:58;4.82;;;3.60;;
13933;SDS011;7039;52.168;9.866;2023-06-19T13:43:25;4.43;;;4.03;;
13933;SDS011;7039;52.168;9.866;2023-06-19T13:45:51;7.68;;;3.88;;
13933;SDS011;7039;52.168;9.866;2023-06-19T13:48:19;4.63;;;4.22;;
13933;SDS011;7039;52.168;9.866;2023-06-19T13:50:46;6.65;;;5.30;;
13933;SDS011;7039;52.168;9.866;2023-06-19T13:53:12;5.50;;;4.47;;
13933;SDS011;7039;52.168;9.866;2023-06-19T13:55:39;4.60;;;4.15;;
13933;SDS011;7039;52.168;9.866;2023-06-19T13:58:05;5.78;;;4.82;;
13933;SDS011;7039;52.168;9.866;2023-06-19T14:00:32;6.70;;;4.97;;
13933;SDS011;7039;52.168;9.866;2023-06-19T14:03:01;5.38;;;4.88;;
13933;SDS011;7039;52.168;9.866;2023-06-19T14:05:32;4.82;;;4.43;;
13933;SDS011;7039;52.168;9.866;2023-06-19T14:07:59;6.03;;;5.45;;
13933;SDS011;7039;52.168;9.866;2023-06-19T14:10:26;9.27;;;5.40;;
13933;SDS011;7039;52.168;9.866;2023-06-19T14:12:52;5.72;;;5.20;;
13933;SDS011;7039;52.168;9.866;2023-06-19T14:15:19;5.13;;;4.72;;
13933;SDS011;7039;52.168;9.866;2023-06-19T14:17:46;6.68;;;3.72;;
13933;SDS011;7039;52.168;9.866;2023-06-19T14:20:12;4.22;;;3.90;;
13933;SDS011;7039;52.168;9.866;2023-06-19T14:22:40;4.50;;;4.15;;
13933;SDS011;7039;52.168;9.866;2023-06-19T14:25:07;4.65;;;4.25;;
13933;SDS011;7039;52.168;9.866;2023-06-19T14:27:34;4.70;;;4.30;;
13933;SDS011;7039;52.168;9.866;2023-06-19T14:30:00;5.32;;;4.85;;
13933;SDS011;7039;52.168;9.866;2023-06-19T14:32:27;4.97;;;4.68;;
13933;SDS011;7039;52.168;9.866;2023-06-19T14:34:53;7.70;;;4.78;;
13933;SDS011;7039;52.168;9.866;2023-06-19T14:37:20;5.50;;;4.55;;
13933;SDS011;7039;52.168;9.866;2023-06-19T14:39:48;7.07;;;5.35;;
13933;SDS011;7039;52.168;9.866;2023-06-19T14:42:14;5.75;;;4.85;;
13933;SDS011;7039;52.168;9.866;2023-06-19T14:44:41;5.95;;;4.97;;
13933;SDS011;7039;52.168;9.866;2023-06-19T14:47:07;4.97;;;4.53;;
13933;SDS011;7039;52.168;9.866;2023-06-19T14:49:34;5.45;;;4.95;;
13933;SDS011;7039;52.168;9.866;2023-06-19T14:52:00;5.68;;;5.13;;
13933;SDS011;7039;52.168;9.866;2023-06-19T14:54:27;6.13;;;5.53;;
13933;SDS011;7039;52.168;9.866;2023-06-19T14:56:55;5.57;;;5.10;;
13933;SDS011;7039;52.168;9.866;2023-06-19T14:59:21;5.30;;;4.90;;
13933;SDS011;7039;52.168;9.866;2023-06-19T15:01:48;7.97;;;4.85;;